sensor_id;sensor_type;location;lat;lon;timestamp;temperature;humidity
5009;DHT22;2523;51.058;6.922;2023-07-08T00:00:47;22.90;1.00
5009;DHT22;2523;51.058;6.922;2023-07-08T00:03:14;22.90;1.00
5009;DHT22;2523;51.058;6.922;2023-07-08T00:05:39;22.90;1.00
5009;DHT22;2523;51.058;6.922;2023-07-08T00:08:07;22.80;1.00
5009;DHT22;2523;51.058;6.922;2023-07-08T00:10:33;22.80;1.00
5009;DHT22;2523;51.058;6.922;2023-07-08T00:12:58;22.70;1.00
5009;DHT22;2523;51.058;6.922;2023-07-08T00:15:29;22.60;1.00
5009;DHT22;2523;51.058;6.922;2023-07-08T00:17:55;22.60;1.00
5009;DHT22;2523;51.058;6.922;2023-07-08T00:20:31;22.50;1.00
5009;DHT22;2523;51.058;6.922;2023-07-08T00:22:57;22.50;1.00
5009;DHT22;2523;51.058;6.922;2023-07-08T00:25:26;22.50;1.00
5009;DHT22;2523;51.058;6.922;2023-07-08T00:27:51;22.50;1.00
5009;DHT22;2523;51.058;6.922;2023-07-08T00:30:18;22.50;1.00
5009;DHT22;2523;51.058;6.922;2023-07-08T00:32:44;22.50;1.00
5009;DHT22;2523;51.058;6.922;2023-07-08T00:35:09;22.50;1.00
5009;DHT22;2523;51.058;6.922;2023-07-08T00:37:35;22.50;1.00
5009;DHT22;2523;51.058;6.922;2023-07-08T00:40:01;22.50;1.00
5009;DHT22;2523;51.058;6.922;2023-07-08T00:42:28;22.40;1.00
5009;DHT22;2523;51.058;6.922;2023-07-08T00:44:55;22.40;1.00
5009;DHT22;2523;51.058;6.922;2023-07-08T00:47:22;22.40;1.00
5009;DHT22;2523;51.058;6.922;2023-07-08T00:49:58;22.30;1.00
5009;DHT22;2523;51.058;6.922;2023-07-08T00:52:28;22.30;1.00
5009;DHT22;2523;51.058;6.922;2023-07-08T00:54:58;22.20;1.00
5009;DHT22;2523;51.058;6.922;2023-07-08T00:57:28;22.10;1.00
5009;DHT22;2523;51.058;6.922;2023-07-08T01:00:13;22.10;1.00
5009;DHT22;2523;51.058;6.922;2023-07-08T01:02:49;22.10;1.00
5009;DHT22;2523;51.058;6.922;2023-07-08T01:05:22;22.00;1.00
5009;DHT22;2523;51.058;6.922;2023-07-08T01:07:56;21.90;1.00
5009;DHT22;2523;51.058;6.922;2023-07-08T01:10:32;21.80;1.00
5009;DHT22;2523;51.058;6.922;2023-07-08T01:13:00;21.80;1.00
5009;DHT22;2523;51.058;6.922;2023-07-08T01:15:32;21.70;1.00
5009;DHT22;2523;51.058;6.922;2023-07-08T01:18:01;21.70;1.00
5009;DHT22;2523;51.058;6.922;2023-07-08T01:20:27;21.60;1.00
5009;DHT22;2523;51.058;6.922;2023-07-08T01:22:52;21.60;1.00
5009;DHT22;2523;51.058;6.922;2023-07-08T01:25:18;21.50;1.00
5009;DHT22;2523;51.058;6.922;2023-07-08T01:27:46;21.50;1.00
5009;DHT22;2523;51.058;6.922;2023-07-08T01:30:14;21.40;1.00
5009;DHT22;2523;51.058;6.922;2023-07-08T01:32:46;21.40;1.00
5009;DHT22;2523;51.058;6.922;2023-07-08T01:35:13;21.40;1.00
5009;DHT22;2523;51.058;6.922;2023-07-08T01:37:41;21.40;1.00
5009;DHT22;2523;51.058;6.922;2023-07-08T01:42:46;21.30;1.00
5009;DHT22;2523;51.058;6.922;2023-07-08T01:45:15;21.30;1.00
5009;DHT22;2523;51.058;6.922;2023-07-08T01:47:43;21.30;1.00
5009;DHT22;2523;51.058;6.922;2023-07-08T01:50:10;21.30;1.00
5009;DHT22;2523;51.058;6.922;2023-07-08T01:52:37;21.30;1.00
5009;DHT22;2523;51.058;6.922;2023-07-08T01:55:03;21.30;1.00
5009;DHT22;2523;51.058;6.922;2023-07-08T01:57:29;21.20;1.00
5009;DHT22;2523;51.058;6.922;2023-07-08T01:59:54;21.20;1.00
5009;DHT22;2523;51.058;6.922;2023-07-08T02:02:20;21.10;1.00
5009;DHT22;2523;51.058;6.922;2023-07-08T02:04:45;21.10;1.00
5009;DHT22;2523;51.058;6.922;2023-07-08T02:07:11;21.20;1.00
5009;DHT22;2523;51.058;6.922;2023-07-08T02:09:36;21.20;1.00
5009;DHT22;2523;51.058;6.922;2023-07-08T02:12:02;21.20;1.00
5009;DHT22;2523;51.058;6.922;2023-07-08T02:14:27;21.20;1.00
5009;DHT22;2523;51.058;6.922;2023-07-08T02:16:53;21.20;1.00
5009;DHT22;2523;51.058;6.922;2023-07-08T02:19:19;21.10;1.00
5009;DHT22;2523;51.058;6.922;2023-07-08T02:21:45;21.20;1.00
5009;DHT22;2523;51.058;6.922;2023-07-08T02:24:10;21.20;1.00
5009;DHT22;2523;51.058;6.922;2023-07-08T02:26:36;21.20;1.00
5009;DHT22;2523;51.058;6.922;2023-07-08T02:29:02;21.20;1.00
5009;DHT22;2523;51.058;6.922;2023-07-08T02:31:28;21.20;1.00
5009;DHT22;2523;51.058;6.922;2023-07-08T02:33:53;21.20;1.00
5009;DHT22;2523;51.058;6.922;2023-07-08T02:36:21;21.20;1.00
5009;DHT22;2523;51.058;6.922;2023-07-08T02:38:47;21.20;1.00
5009;DHT22;2523;51.058;6.922;2023-07-08T02:41:12;21.20;1.00
5009;DHT22;2523;51.058;6.922;2023-07-08T02:43:38;21.20;1.00
5009;DHT22;2523;51.058;6.922;2023-07-08T02:46:04;21.20;1.00
5009;DHT22;2523;51.058;6.922;2023-07-08T02:48:29;21.20;1.00
5009;DHT22;2523;51.058;6.922;2023-07-08T02:50:59;21.10;1.00
5009;DHT22;2523;51.058;6.922;2023-07-08T02:53:25;21.10;1.00
5009;DHT22;2523;51.058;6.922;2023-07-08T02:55:51;21.10;1.00
5009;DHT22;2523;51.058;6.922;2023-07-08T02:58:16;21.10;1.00
5009;DHT22;2523;51.058;6.922;2023-07-08T03:00:42;21.00;1.00
5009;DHT22;2523;51.058;6.922;2023-07-08T03:03:07;21.00;1.00
5009;DHT22;2523;51.058;6.922;2023-07-08T03:05:32;21.00;1.00
5009;DHT22;2523;51.058;6.922;2023-07-08T03:07:59;20.90;1.00
5009;DHT22;2523;51.058;6.922;2023-07-08T03:10:25;20.90;1.00
5009;DHT22;2523;51.058;6.922;2023-07-08T03:12:50;20.80;1.00
5009;DHT22;2523;51.058;6.922;2023-07-08T03:15:16;20.80;1.00
5009;DHT22;2523;51.058;6.922;2023-07-08T03:17:41;20.80;1.00
5009;DHT22;2523;51.058;6.922;2023-07-08T03:20:08;20.80;1.00
5009;DHT22;2523;51.058;6.922;2023-07-08T03:22:34;20.70;1.00
5009;DHT22;2523;51.058;6.922;2023-07-08T03:24:59;20.70;1.00
5009;DHT22;2523;51.058;6.922;2023-07-08T03:27:25;20.60;1.00
5009;DHT22;2523;51.058;6.922;2023-07-08T03:29:50;20.60;1.00
5009;DHT22;2523;51.058;6.922;2023-07-08T03:32:16;20.60;1.00
5009;DHT22;2523;51.058;6.922;2023-07-08T03:34:41;20.60;1.00
5009;DHT22;2523;51.058;6.922;2023-07-08T03:37:11;20.60;1.00
5009;DHT22;2523;51.058;6.922;2023-07-08T03:39:36;20.60;1.00
5009;DHT22;2523;51.058;6.922;2023-07-08T03:42:02;20.60;1.00
5009;DHT22;2523;51.058;6.922;2023-07-08T03:44:29;20.60;1.00
5009;DHT22;2523;51.058;6.922;2023-07-08T03:46:55;20.60;1.00
5009;DHT22;2523;51.058;6.922;2023-07-08T03:49:22;20.60;1.00
5009;DHT22;2523;51.058;6.922;2023-07-08T03:51:51;20.60;1.00
5009;DHT22;2523;51.058;6.922;2023-07-08T03:54:18;20.60;1.00
5009;DHT22;2523;51.058;6.922;2023-07-08T03:56:44;20.60;1.00
5009;DHT22;2523;51.058;6.922;2023-07-08T03:59:10;20.60;1.00
5009;DHT22;2523;51.058;6.922;2023-07-08T04:01:36;20.60;1.00
5009;DHT22;2523;51.058;6.922;2023-07-08T04:04:02;20.60;1.00
5009;DHT22;2523;51.058;6.922;2023-07-08T04:06:28;20.50;1.00
5009;DHT22;2523;51.058;6.922;2023-07-08T04:08:54;20.50;1.00
5009;DHT22;2523;51.058;6.922;2023-07-08T04:11:22;20.50;1.00
5009;DHT22;2523;51.058;6.922;2023-07-08T04:13:49;20.50;1.00
5009;DHT22;2523;51.058;6.922;2023-07-08T04:16:21;20.60;1.00
5009;DHT22;2523;51.058;6.922;2023-07-08T04:18:48;20.60;1.00
5009;DHT22;2523;51.058;6.922;2023-07-08T04:21:17;20.70;1.00
5009;DHT22;2523;51.058;6.922;2023-07-08T04:23:42;20.70;1.00
5009;DHT22;2523;51.058;6.922;2023-07-08T04:26:08;20.70;1.00
5009;DHT22;2523;51.058;6.922;2023-07-08T04:28:34;20.70;1.00
5009;DHT22;2523;51.058;6.922;2023-07-08T04:30:59;20.80;1.00
5009;DHT22;2523;51.058;6.922;2023-07-08T04:33:26;20.70;1.00
5009;DHT22;2523;51.058;6.922;2023-07-08T04:35:52;20.80;1.00
5009;DHT22;2523;51.058;6.922;2023-07-08T04:38:21;20.80;1.00
5009;DHT22;2523;51.058;6.922;2023-07-08T04:40:49;20.80;1.00
5009;DHT22;2523;51.058;6.922;2023-07-08T04:43:15;20.80;1.00
5009;DHT22;2523;51.058;6.922;2023-07-08T04:45:42;20.80;1.00
5009;DHT22;2523;51.058;6.922;2023-07-08T04:48:16;20.80;1.00
5009;DHT22;2523;51.058;6.922;2023-07-08T04:50:43;20.80;1.00
5009;DHT22;2523;51.058;6.922;2023-07-08T04:53:09;20.70;1.00
5009;DHT22;2523;51.058;6.922;2023-07-08T04:55:44;20.70;1.00
5009;DHT22;2523;51.058;6.922;2023-07-08T04:58:09;20.60;1.00
5009;DHT22;2523;51.058;6.922;2023-07-08T05:00:35;20.60;1.00
5009;DHT22;2523;51.058;6.922;2023-07-08T05:03:01;20.50;1.00
5009;DHT22;2523;51.058;6.922;2023-07-08T05:05:27;20.50;1.00
5009;DHT22;2523;51.058;6.922;2023-07-08T05:07:52;20.50;1.00
5009;DHT22;2523;51.058;6.922;2023-07-08T05:10:19;20.50;1.00
5009;DHT22;2523;51.058;6.922;2023-07-08T05:12:45;20.50;1.00
5009;DHT22;2523;51.058;6.922;2023-07-08T05:15:12;20.50;1.00
5009;DHT22;2523;51.058;6.922;2023-07-08T05:17:38;20.60;1.00
5009;DHT22;2523;51.058;6.922;2023-07-08T05:20:06;20.70;1.00
5009;DHT22;2523;51.058;6.922;2023-07-08T05:22:33;20.80;1.00
5009;DHT22;2523;51.058;6.922;2023-07-08T05:24:58;20.80;1.00
5009;DHT22;2523;51.058;6.922;2023-07-08T05:27:24;21.00;1.00
5009;DHT22;2523;51.058;6.922;2023-07-08T05:29:50;21.10;1.00
5009;DHT22;2523;51.058;6.922;2023-07-08T05:32:17;21.10;1.00
5009;DHT22;2523;51.058;6.922;2023-07-08T05:34:43;21.20;1.00
5009;DHT22;2523;51.058;6.922;2023-07-08T05:37:09;21.40;1.00
5009;DHT22;2523;51.058;6.922;2023-07-08T05:39:34;21.60;1.00
5009;DHT22;2523;51.058;6.922;2023-07-08T05:42:00;21.80;1.00
5009;DHT22;2523;51.058;6.922;2023-07-08T05:44:26;21.90;1.00
5009;DHT22;2523;51.058;6.922;2023-07-08T05:46:51;22.00;1.00
5009;DHT22;2523;51.058;6.922;2023-07-08T05:49:17;22.10;1.00
5009;DHT22;2523;51.058;6.922;2023-07-08T05:51:45;22.10;1.00
5009;DHT22;2523;51.058;6.922;2023-07-08T05:54:11;22.10;1.00
5009;DHT22;2523;51.058;6.922;2023-07-08T05:56:37;22.20;1.00
5009;DHT22;2523;51.058;6.922;2023-07-08T05:59:03;22.20;1.00
5009;DHT22;2523;51.058;6.922;2023-07-08T06:01:29;22.40;1.00
5009;DHT22;2523;51.058;6.922;2023-07-08T06:03:56;22.40;1.00
5009;DHT22;2523;51.058;6.922;2023-07-08T06:06:28;22.50;1.00
5009;DHT22;2523;51.058;6.922;2023-07-08T06:08:54;22.70;1.00
5009;DHT22;2523;51.058;6.922;2023-07-08T06:11:20;22.90;1.00
5009;DHT22;2523;51.058;6.922;2023-07-08T06:13:47;23.00;1.00
5009;DHT22;2523;51.058;6.922;2023-07-08T06:16:13;23.10;1.00
5009;DHT22;2523;51.058;6.922;2023-07-08T06:18:38;23.10;1.00
5009;DHT22;2523;51.058;6.922;2023-07-08T06:21:05;23.20;1.00
5009;DHT22;2523;51.058;6.922;2023-07-08T06:23:30;23.20;1.00
5009;DHT22;2523;51.058;6.922;2023-07-08T06:25:56;23.20;1.00
5009;DHT22;2523;51.058;6.922;2023-07-08T06:28:22;23.30;1.00
5009;DHT22;2523;51.058;6.922;2023-07-08T06:30:48;23.40;1.00
5009;DHT22;2523;51.058;6.922;2023-07-08T06:33:14;23.30;1.00
5009;DHT22;2523;51.058;6.922;2023-07-08T06:35:41;23.40;1.00
5009;DHT22;2523;51.058;6.922;2023-07-08T06:38:07;23.60;1.00
5009;DHT22;2523;51.058;6.922;2023-07-08T06:40:33;23.60;1.00
5009;DHT22;2523;51.058;6.922;2023-07-08T06:42:59;23.60;1.00
5009;DHT22;2523;51.058;6.922;2023-07-08T06:45:25;23.70;1.00
5009;DHT22;2523;51.058;6.922;2023-07-08T06:47:50;23.70;1.00
5009;DHT22;2523;51.058;6.922;2023-07-08T06:50:16;23.80;1.00
5009;DHT22;2523;51.058;6.922;2023-07-08T06:52:42;23.90;1.00
5009;DHT22;2523;51.058;6.922;2023-07-08T06:55:09;24.00;1.00
5009;DHT22;2523;51.058;6.922;2023-07-08T06:57:35;24.10;1.00
5009;DHT22;2523;51.058;6.922;2023-07-08T07:00:04;24.10;1.00
5009;DHT22;2523;51.058;6.922;2023-07-08T07:02:29;24.10;1.00
5009;DHT22;2523;51.058;6.922;2023-07-08T07:04:55;24.10;1.00
5009;DHT22;2523;51.058;6.922;2023-07-08T07:07:21;24.00;1.00
5009;DHT22;2523;51.058;6.922;2023-07-08T07:09:46;24.10;1.00
5009;DHT22;2523;51.058;6.922;2023-07-08T07:12:12;24.10;1.00
5009;DHT22;2523;51.058;6.922;2023-07-08T07:14:37;24.20;1.00
5009;DHT22;2523;51.058;6.922;2023-07-08T07:17:03;24.30;1.00
5009;DHT22;2523;51.058;6.922;2023-07-08T07:19:29;24.40;1.00
5009;DHT22;2523;51.058;6.922;2023-07-08T07:21:54;24.50;1.00
5009;DHT22;2523;51.058;6.922;2023-07-08T07:24:20;24.60;1.00
5009;DHT22;2523;51.058;6.922;2023-07-08T07:26:46;24.70;1.00
5009;DHT22;2523;51.058;6.922;2023-07-08T07:29:14;24.80;1.00
5009;DHT22;2523;51.058;6.922;2023-07-08T07:31:39;25.00;1.00
5009;DHT22;2523;51.058;6.922;2023-07-08T07:34:05;25.10;1.00
5009;DHT22;2523;51.058;6.922;2023-07-08T07:36:31;25.10;1.00
5009;DHT22;2523;51.058;6.922;2023-07-08T07:38:56;25.20;1.00
5009;DHT22;2523;51.058;6.922;2023-07-08T07:41:22;25.30;1.00
5009;DHT22;2523;51.058;6.922;2023-07-08T07:43:48;25.40;1.00
5009;DHT22;2523;51.058;6.922;2023-07-08T07:46:14;25.50;1.00
5009;DHT22;2523;51.058;6.922;2023-07-08T07:48:39;25.50;1.00
5009;DHT22;2523;51.058;6.922;2023-07-08T07:51:05;25.60;1.00
5009;DHT22;2523;51.058;6.922;2023-07-08T07:53:32;25.60;1.00
5009;DHT22;2523;51.058;6.922;2023-07-08T07:56:02;25.70;1.00
5009;DHT22;2523;51.058;6.922;2023-07-08T07:58:27;25.90;1.00
5009;DHT22;2523;51.058;6.922;2023-07-08T08:00:53;25.90;1.00
5009;DHT22;2523;51.058;6.922;2023-07-08T08:03:20;25.90;1.00
5009;DHT22;2523;51.058;6.922;2023-07-08T08:05:46;25.90;1.00
5009;DHT22;2523;51.058;6.922;2023-07-08T08:08:12;25.90;1.00
5009;DHT22;2523;51.058;6.922;2023-07-08T08:10:37;25.90;1.00
5009;DHT22;2523;51.058;6.922;2023-07-08T08:13:03;26.00;1.00
5009;DHT22;2523;51.058;6.922;2023-07-08T08:15:29;26.10;1.00
5009;DHT22;2523;51.058;6.922;2023-07-08T08:17:56;26.10;1.00
5009;DHT22;2523;51.058;6.922;2023-07-08T08:20:23;26.20;1.00
5009;DHT22;2523;51.058;6.922;2023-07-08T08:22:49;26.40;1.00
5009;DHT22;2523;51.058;6.922;2023-07-08T08:25:15;26.60;1.00
5009;DHT22;2523;51.058;6.922;2023-07-08T08:27:41;26.80;1.00
5009;DHT22;2523;51.058;6.922;2023-07-08T08:30:07;27.00;1.00
5009;DHT22;2523;51.058;6.922;2023-07-08T08:32:33;27.10;1.00
5009;DHT22;2523;51.058;6.922;2023-07-08T08:34:59;27.20;1.00
5009;DHT22;2523;51.058;6.922;2023-07-08T08:37:25;27.20;1.00
5009;DHT22;2523;51.058;6.922;2023-07-08T08:39:50;27.10;1.00
5009;DHT22;2523;51.058;6.922;2023-07-08T08:42:38;27.10;1.00
5009;DHT22;2523;51.058;6.922;2023-07-08T08:45:05;27.10;1.00
5009;DHT22;2523;51.058;6.922;2023-07-08T08:47:41;27.30;1.00
5009;DHT22;2523;51.058;6.922;2023-07-08T08:53:05;27.50;1.00
5009;DHT22;2523;51.058;6.922;2023-07-08T08:55:34;27.50;1.00
5009;DHT22;2523;51.058;6.922;2023-07-08T09:01:02;27.90;1.00
5009;DHT22;2523;51.058;6.922;2023-07-08T09:03:48;28.00;1.00
5009;DHT22;2523;51.058;6.922;2023-07-08T09:06:19;28.10;1.00
5009;DHT22;2523;51.058;6.922;2023-07-08T09:08:46;28.20;1.00
5009;DHT22;2523;51.058;6.922;2023-07-08T09:11:39;28.20;1.00
5009;DHT22;2523;51.058;6.922;2023-07-08T09:14:19;28.40;1.00
5009;DHT22;2523;51.058;6.922;2023-07-08T09:19:29;28.70;1.00
5009;DHT22;2523;51.058;6.922;2023-07-08T09:22:11;28.80;1.00
5009;DHT22;2523;51.058;6.922;2023-07-08T09:24:49;28.90;1.00
5009;DHT22;2523;51.058;6.922;2023-07-08T09:27:16;29.00;1.00
5009;DHT22;2523;51.058;6.922;2023-07-08T09:29:42;29.00;1.00
5009;DHT22;2523;51.058;6.922;2023-07-08T09:32:21;29.00;1.00
5009;DHT22;2523;51.058;6.922;2023-07-08T09:34:51;29.00;1.00
5009;DHT22;2523;51.058;6.922;2023-07-08T09:37:31;29.20;1.00
5009;DHT22;2523;51.058;6.922;2023-07-08T09:39:58;29.30;1.00
5009;DHT22;2523;51.058;6.922;2023-07-08T09:42:31;29.50;1.00
5009;DHT22;2523;51.058;6.922;2023-07-08T09:45:00;29.60;1.00
5009;DHT22;2523;51.058;6.922;2023-07-08T09:47:29;29.70;1.00
5009;DHT22;2523;51.058;6.922;2023-07-08T09:49:59;29.80;1.00
5009;DHT22;2523;51.058;6.922;2023-07-08T09:52:24;29.90;1.00
5009;DHT22;2523;51.058;6.922;2023-07-08T09:54:50;29.90;1.00
5009;DHT22;2523;51.058;6.922;2023-07-08T09:57:34;30.10;1.00
5009;DHT22;2523;51.058;6.922;2023-07-08T10:00:02;30.20;1.00
5009;DHT22;2523;51.058;6.922;2023-07-08T10:04:59;30.20;1.00
5009;DHT22;2523;51.058;6.922;2023-07-08T10:07:29;30.30;1.00
5009;DHT22;2523;51.058;6.922;2023-07-08T10:09:58;30.60;1.00
5009;DHT22;2523;51.058;6.922;2023-07-08T10:12:24;30.70;1.00
5009;DHT22;2523;51.058;6.922;2023-07-08T10:14:54;30.70;1.00
5009;DHT22;2523;51.058;6.922;2023-07-08T10:17:21;30.70;1.00
5009;DHT22;2523;51.058;6.922;2023-07-08T10:19:48;30.80;1.00
5009;DHT22;2523;51.058;6.922;2023-07-08T10:22:40;30.80;1.00
5009;DHT22;2523;51.058;6.922;2023-07-08T10:25:16;30.90;1.00
5009;DHT22;2523;51.058;6.922;2023-07-08T10:28:01;31.00;1.00
5009;DHT22;2523;51.058;6.922;2023-07-08T10:30:37;31.20;1.00
5009;DHT22;2523;51.058;6.922;2023-07-08T10:33:28;31.50;1.00
5009;DHT22;2523;51.058;6.922;2023-07-08T10:36:05;31.50;1.00
5009;DHT22;2523;51.058;6.922;2023-07-08T10:42:03;31.60;1.00
5009;DHT22;2523;51.058;6.922;2023-07-08T10:44:50;31.70;1.00
5009;DHT22;2523;51.058;6.922;2023-07-08T10:47:42;32.00;1.00
5009;DHT22;2523;51.058;6.922;2023-07-08T10:50:24;32.10;1.00
5009;DHT22;2523;51.058;6.922;2023-07-08T10:55:55;32.30;1.00
5009;DHT22;2523;51.058;6.922;2023-07-08T10:58:52;32.50;1.00
5009;DHT22;2523;51.058;6.922;2023-07-08T11:02:17;32.60;1.00
5009;DHT22;2523;51.058;6.922;2023-07-08T11:07:00;32.80;1.00
5009;DHT22;2523;51.058;6.922;2023-07-08T11:09:47;33.00;1.00
5009;DHT22;2523;51.058;6.922;2023-07-08T11:12:34;33.10;1.00
5009;DHT22;2523;51.058;6.922;2023-07-08T11:18:16;33.30;1.00
5009;DHT22;2523;51.058;6.922;2023-07-08T11:23:40;33.50;1.00
5009;DHT22;2523;51.058;6.922;2023-07-08T11:26:28;33.70;1.00
5009;DHT22;2523;51.058;6.922;2023-07-08T11:28:57;33.80;1.00
5009;DHT22;2523;51.058;6.922;2023-07-08T11:31:24;33.90;1.00
5009;DHT22;2523;51.058;6.922;2023-07-08T11:33:51;33.90;1.00
5009;DHT22;2523;51.058;6.922;2023-07-08T11:36:19;34.10;1.00
5009;DHT22;2523;51.058;6.922;2023-07-08T11:38:55;34.30;1.00
5009;DHT22;2523;51.058;6.922;2023-07-08T11:41:26;34.30;1.00
5009;DHT22;2523;51.058;6.922;2023-07-08T11:44:04;34.40;1.00
5009;DHT22;2523;51.058;6.922;2023-07-08T11:46:32;34.50;1.00
5009;DHT22;2523;51.058;6.922;2023-07-08T11:49:02;34.60;1.00
5009;DHT22;2523;51.058;6.922;2023-07-08T11:51:35;34.70;1.00
5009;DHT22;2523;51.058;6.922;2023-07-08T11:54:14;34.70;1.00
5009;DHT22;2523;51.058;6.922;2023-07-08T11:59:20;34.60;1.00
5009;DHT22;2523;51.058;6.922;2023-07-08T12:04:35;35.00;1.00
5009;DHT22;2523;51.058;6.922;2023-07-08T12:07:50;35.20;1.00
5009;DHT22;2523;51.058;6.922;2023-07-08T12:10:32;34.80;1.00
5009;DHT22;2523;51.058;6.922;2023-07-08T12:13:00;34.90;1.00
5009;DHT22;2523;51.058;6.922;2023-07-08T12:15:27;35.00;1.00
5009;DHT22;2523;51.058;6.922;2023-07-08T12:17:56;35.30;1.00
5009;DHT22;2523;51.058;6.922;2023-07-08T12:20:30;35.40;1.00
5009;DHT22;2523;51.058;6.922;2023-07-08T12:22:56;35.50;1.00
5009;DHT22;2523;51.058;6.922;2023-07-08T12:25:30;35.30;1.00
5009;DHT22;2523;51.058;6.922;2023-07-08T12:27:57;35.40;1.00
5009;DHT22;2523;51.058;6.922;2023-07-08T12:30:23;35.40;1.00
5009;DHT22;2523;51.058;6.922;2023-07-08T12:32:49;35.30;1.00
5009;DHT22;2523;51.058;6.922;2023-07-08T12:35:34;35.40;1.00
5009;DHT22;2523;51.058;6.922;2023-07-08T12:38:02;35.50;1.00
5009;DHT22;2523;51.058;6.922;2023-07-08T12:40:29;35.70;1.00
5009;DHT22;2523;51.058;6.922;2023-07-08T12:42:58;35.60;1.00
5009;DHT22;2523;51.058;6.922;2023-07-08T12:45:30;35.40;1.00
5009;DHT22;2523;51.058;6.922;2023-07-08T12:47:56;35.60;1.00
5009;DHT22;2523;51.058;6.922;2023-07-08T12:50:21;35.90;1.00
5009;DHT22;2523;51.058;6.922;2023-07-08T12:52:47;36.00;1.00
5009;DHT22;2523;51.058;6.922;2023-07-08T12:55:13;36.00;1.00
5009;DHT22;2523;51.058;6.922;2023-07-08T12:57:42;36.00;1.00
5009;DHT22;2523;51.058;6.922;2023-07-08T13:00:24;36.00;1.00
5009;DHT22;2523;51.058;6.922;2023-07-08T13:02:59;35.70;1.00
5009;DHT22;2523;51.058;6.922;2023-07-08T13:05:29;35.90;1.00
5009;DHT22;2523;51.058;6.922;2023-07-08T13:07:55;36.00;1.00
5009;DHT22;2523;51.058;6.922;2023-07-08T13:10:24;36.10;1.00
5009;DHT22;2523;51.058;6.922;2023-07-08T13:13:02;36.40;1.00
5009;DHT22;2523;51.058;6.922;2023-07-08T13:15:36;36.40;1.00
5009;DHT22;2523;51.058;6.922;2023-07-08T13:18:04;36.30;1.00
5009;DHT22;2523;51.058;6.922;2023-07-08T13:20:30;36.30;1.00
5009;DHT22;2523;51.058;6.922;2023-07-08T13:23:00;36.30;1.00
5009;DHT22;2523;51.058;6.922;2023-07-08T13:25:31;36.60;1.00
5009;DHT22;2523;51.058;6.922;2023-07-08T13:28:00;36.50;1.00
5009;DHT22;2523;51.058;6.922;2023-07-08T13:30:28;36.60;1.00
5009;DHT22;2523;51.058;6.922;2023-07-08T13:32:59;36.60;1.00
5009;DHT22;2523;51.058;6.922;2023-07-08T13:35:36;36.40;1.00
5009;DHT22;2523;51.058;6.922;2023-07-08T13:38:03;36.10;1.00
5009;DHT22;2523;51.058;6.922;2023-07-08T13:40:29;36.00;1.00
5009;DHT22;2523;51.058;6.922;2023-07-08T13:42:55;36.30;1.00
5009;DHT22;2523;51.058;6.922;2023-07-08T13:45:32;36.30;1.00
5009;DHT22;2523;51.058;6.922;2023-07-08T13:50:33;36.50;1.00
5009;DHT22;2523;51.058;6.922;2023-07-08T13:53:01;36.40;1.00
5009;DHT22;2523;51.058;6.922;2023-07-08T13:55:28;36.60;1.00
5009;DHT22;2523;51.058;6.922;2023-07-08T13:58:01;36.50;1.00
5009;DHT22;2523;51.058;6.922;2023-07-08T14:00:30;36.40;1.00
5009;DHT22;2523;51.058;6.922;2023-07-08T14:02:56;36.40;1.00
5009;DHT22;2523;51.058;6.922;2023-07-08T14:05:22;36.40;1.00
5009;DHT22;2523;51.058;6.922;2023-07-08T14:07:48;36.00;1.00
5009;DHT22;2523;51.058;6.922;2023-07-08T14:10:14;35.80;1.00
5009;DHT22;2523;51.058;6.922;2023-07-08T14:12:40;36.00;1.00
5009;DHT22;2523;51.058;6.922;2023-07-08T14:15:06;36.20;1.00
5009;DHT22;2523;51.058;6.922;2023-07-08T14:17:33;36.20;1.00
5009;DHT22;2523;51.058;6.922;2023-07-08T14:19:58;36.00;1.00
5009;DHT22;2523;51.058;6.922;2023-07-08T14:22:29;36.00;1.00
5009;DHT22;2523;51.058;6.922;2023-07-08T14:24:56;35.80;1.00
5009;DHT22;2523;51.058;6.922;2023-07-08T14:27:23;35.80;1.00
5009;DHT22;2523;51.058;6.922;2023-07-08T14:29:50;35.60;1.00
5009;DHT22;2523;51.058;6.922;2023-07-08T14:32:18;35.50;1.00
5009;DHT22;2523;51.058;6.922;2023-07-08T14:34:51;35.30;1.00
5009;DHT22;2523;51.058;6.922;2023-07-08T14:37:17;35.20;1.00
5009;DHT22;2523;51.058;6.922;2023-07-08T14:39:46;34.70;1.00
5009;DHT22;2523;51.058;6.922;2023-07-08T14:42:13;34.40;1.00
5009;DHT22;2523;51.058;6.922;2023-07-08T14:44:40;34.50;1.00
5009;DHT22;2523;51.058;6.922;2023-07-08T14:47:12;34.70;1.00
5009;DHT22;2523;51.058;6.922;2023-07-08T14:49:38;34.70;1.00
5009;DHT22;2523;51.058;6.922;2023-07-08T14:52:04;34.80;1.00
5009;DHT22;2523;51.058;6.922;2023-07-08T14:54:30;35.00;1.00
5009;DHT22;2523;51.058;6.922;2023-07-08T14:56:56;35.00;1.00
5009;DHT22;2523;51.058;6.922;2023-07-08T14:59:28;35.10;1.00
5009;DHT22;2523;51.058;6.922;2023-07-08T15:01:54;35.20;1.00
5009;DHT22;2523;51.058;6.922;2023-07-08T15:04:21;35.00;1.00
5009;DHT22;2523;51.058;6.922;2023-07-08T15:06:47;35.00;1.00
5009;DHT22;2523;51.058;6.922;2023-07-08T15:09:13;35.00;1.00
5009;DHT22;2523;51.058;6.922;2023-07-08T15:11:40;35.00;1.00
5009;DHT22;2523;51.058;6.922;2023-07-08T15:14:17;35.00;1.00
5009;DHT22;2523;51.058;6.922;2023-07-08T15:16:44;34.90;1.00
5009;DHT22;2523;51.058;6.922;2023-07-08T15:19:11;34.90;1.00
5009;DHT22;2523;51.058;6.922;2023-07-08T15:21:38;34.80;1.00
5009;DHT22;2523;51.058;6.922;2023-07-08T15:24:03;34.90;1.00
5009;DHT22;2523;51.058;6.922;2023-07-08T15:26:29;34.90;1.00
5009;DHT22;2523;51.058;6.922;2023-07-08T15:28:55;34.80;1.00
5009;DHT22;2523;51.058;6.922;2023-07-08T15:31:24;34.80;1.00
5009;DHT22;2523;51.058;6.922;2023-07-08T15:33:51;34.60;1.00
5009;DHT22;2523;51.058;6.922;2023-07-08T15:36:17;34.50;1.00
5009;DHT22;2523;51.058;6.922;2023-07-08T15:38:43;34.30;1.00
5009;DHT22;2523;51.058;6.922;2023-07-08T15:41:18;34.30;1.00
5009;DHT22;2523;51.058;6.922;2023-07-08T15:43:44;34.30;1.00
5009;DHT22;2523;51.058;6.922;2023-07-08T15:46:10;34.30;1.00
5009;DHT22;2523;51.058;6.922;2023-07-08T15:48:36;34.20;1.00
5009;DHT22;2523;51.058;6.922;2023-07-08T15:51:01;34.10;1.00
5009;DHT22;2523;51.058;6.922;2023-07-08T15:53:27;34.00;1.00
5009;DHT22;2523;51.058;6.922;2023-07-08T15:55:52;33.80;1.00
5009;DHT22;2523;51.058;6.922;2023-07-08T15:58:30;33.70;1.00
5009;DHT22;2523;51.058;6.922;2023-07-08T16:00:57;33.60;1.00
5009;DHT22;2523;51.058;6.922;2023-07-08T16:03:26;33.50;1.00
5009;DHT22;2523;51.058;6.922;2023-07-08T16:05:53;33.40;1.00
5009;DHT22;2523;51.058;6.922;2023-07-08T16:08:19;33.30;1.00
5009;DHT22;2523;51.058;6.922;2023-07-08T16:10:49;33.30;1.00
5009;DHT22;2523;51.058;6.922;2023-07-08T16:13:19;33.40;1.00
5009;DHT22;2523;51.058;6.922;2023-07-08T16:15:47;33.40;1.00
5009;DHT22;2523;51.058;6.922;2023-07-08T16:18:13;33.50;1.00
5009;DHT22;2523;51.058;6.922;2023-07-08T16:20:38;33.50;1.00
5009;DHT22;2523;51.058;6.922;2023-07-08T16:23:04;33.40;1.00
5009;DHT22;2523;51.058;6.922;2023-07-08T16:25:33;33.40;1.00
5009;DHT22;2523;51.058;6.922;2023-07-08T16:28:00;33.30;1.00
5009;DHT22;2523;51.058;6.922;2023-07-08T16:30:27;33.20;1.00
5009;DHT22;2523;51.058;6.922;2023-07-08T16:32:53;33.20;1.00
5009;DHT22;2523;51.058;6.922;2023-07-08T16:35:20;33.00;1.00
5009;DHT22;2523;51.058;6.922;2023-07-08T16:37:51;33.00;1.00
5009;DHT22;2523;51.058;6.922;2023-07-08T16:40:20;33.00;1.00
5009;DHT22;2523;51.058;6.922;2023-07-08T16:42:47;32.90;1.00
5009;DHT22;2523;51.058;6.922;2023-07-08T16:45:17;32.70;1.00
5009;DHT22;2523;51.058;6.922;2023-07-08T16:47:43;32.60;1.00
5009;DHT22;2523;51.058;6.922;2023-07-08T16:50:09;32.60;1.00
5009;DHT22;2523;51.058;6.922;2023-07-08T16:52:36;32.50;1.00
5009;DHT22;2523;51.058;6.922;2023-07-08T16:55:08;32.50;1.00
5009;DHT22;2523;51.058;6.922;2023-07-08T16:57:37;32.50;1.00
5009;DHT22;2523;51.058;6.922;2023-07-08T17:00:03;32.50;1.00
5009;DHT22;2523;51.058;6.922;2023-07-08T17:02:29;32.50;1.00